Карточка аэропорта UOOO

Внимание!
Информация на этой странице в стадии наполнения.
Если вы не увидели какой-то информации, или заметили неточность - пожалуйста сообщите нам!
Спасибо!
Команда RU-STAFF
Название аэропортаАлыкель
Название аэропорта (англ.)Alykel
Превышение574 ft. (175 m.)
Координаты69°19.02', 87°19.02'
Высота перехода1200m
Эшелон переходаQFE>744:FL60;744>QFE>717:FL70;717>QFE:FL80
Коды ответчика5401-5427
Зона ОрВДКрасноярск РПИ (UNKL)
Данные METARUOOO 210800Z 19007MPS 2900 -SN DRSN SCT017 M16/M19 Q1020 R19/810360 NOSIG RMK QFE749/0998
Проноз погоды (TAF)UOOO 210752Z 2109/2209 19007G12MPS 3500 -SN BLSN BKN016 BECMG 2112/2115 25005G10MPS 6000 -SN BECMG 2118/2121 01003G08MPS TEMPO 2121/2203 1000 -SN BR SCT004 BKN011
NOTAMshow/hide NOTAM
AWOS   TABLE

Информация о ВПП

ВПП Длина ВПП (м.) Покрытие Курс ВПП Частота ILS
193430Бетон193110.3
013430Бетон13109.5

Диспетчерские позиции

Позывной Наименование органа УВД Частота
UOOO_GNDНорильск - Руление121.700
UOOO_TWRНорильск - Старт118.300
UOOO_R_APPНорильск - Круг120.400



Спутниковое изображение